Time;durP1;ratioP1;P1;durP2;ratioP2;P2;SDS_P1;SDS_P2;PMS_P1;PMS_P2;Temp;Humidity;BMP_temperature;BMP_pressure;BME280_temperature;BME280_humidity;BME280_pressure;Samples;Min_cycle;Max_cycle;Signal;HPM_P1;HPM_P2
2022/05/02 00:01:44;;;;;;;17.67;10.27;;;11.10;99.90;;;;;;5009349;28;20026;-94
2022/05/02 00:04:15;;;;;;;14.40;9.80;;;11.10;99.90;;;;;;5004940;28;20030;-94
2022/05/02 00:06:41;;;;;;;17.20;9.75;;;11.10;99.90;;;;;;4993428;28;20018;-95
2022/05/02 00:09:07;;;;;;;15.35;9.90;;;11.00;99.90;;;;;;4993864;28;20129;-94
2022/05/02 00:11:34;;;;;;;14.35;9.88;;;11.00;99.90;;;;;;5000820;28;20037;-94
2022/05/02 00:14:02;;;;;;;18.60;10.68;;;11.00;99.90;;;;;;4997014;28;20044;-95
2022/05/02 00:16:36;;;;;;;16.38;10.18;;;11.00;99.90;;;;;;5003209;28;20042;-94
2022/05/02 00:19:05;;;;;;;15.52;10.55;;;11.00;99.90;;;;;;4997484;28;20021;-95
2022/05/02 00:21:31;;;;;;;15.82;9.82;;;11.00;99.90;;;;;;5003999;28;20569;-94
2022/05/02 00:24:02;;;;;;;13.95;9.65;;;11.00;99.90;;;;;;4992343;28;20027;-95
2022/05/02 00:26:28;;;;;;;16.10;10.80;;;11.00;99.90;;;;;;4990242;28;20037;-94
2022/05/02 00:29:03;;;;;;;14.00;9.48;;;11.00;99.90;;;;;;4997487;28;20038;-94
2022/05/02 00:31:32;;;;;;;15.52;9.35;;;11.10;99.90;;;;;;4990893;28;20027;-94
2022/05/02 00:33:58;;;;;;;16.38;10.35;;;11.10;99.90;;;;;;5010605;28;20536;-93
2022/05/02 00:36:27;;;;;;;13.48;9.63;;;11.10;99.90;;;;;;5006660;28;20038;-93
2022/05/02 00:38:55;;;;;;;14.10;9.20;;;11.10;99.90;;;;;;5001209;28;20116;-94
2022/05/02 00:41:25;;;;;;;14.88;10.40;;;11.00;99.90;;;;;;5003839;28;20049;-95
2022/05/02 00:43:50;;;;;;;14.85;9.50;;;11.00;99.90;;;;;;5004139;28;20101;-94
2022/05/02 00:46:22;;;;;;;13.98;9.63;;;11.00;99.90;;;;;;5010776;28;20026;-95
2022/05/02 00:48:48;;;;;;;18.05;10.13;;;11.00;99.90;;;;;;5005749;28;20125;-94
2022/05/02 00:51:15;;;;;;;14.90;9.52;;;11.00;99.90;;;;;;5005820;28;20030;-95
2022/05/02 00:53:51;;;;;;;16.35;10.15;;;11.00;99.90;;;;;;5004397;28;20014;-95
2022/05/02 00:56:21;;;;;;;13.15;9.18;;;11.00;99.90;;;;;;5006445;28;20105;-93
2022/05/02 00:58:49;;;;;;;14.70;9.93;;;11.00;99.90;;;;;;4999003;28;20029;-95
2022/05/02 01:01:15;;;;;;;14.57;9.32;;;11.00;99.90;;;;;;5011966;28;20014;-92
2022/05/02 01:03:41;;;;;;;14.35;8.95;;;11.00;99.90;;;;;;5010717;28;20037;-92
2022/05/02 01:08:53;;;;;;;15.52;9.45;;;10.90;99.90;;;;;;5024621;28;20037;-94
2022/05/02 01:11:21;;;;;;;13.93;9.45;;;10.90;99.90;;;;;;5012390;28;20033;-94
2022/05/02 01:13:49;;;;;;;15.45;10.38;;;10.90;99.90;;;;;;5004644;28;20051;-95
2022/05/02 01:16:18;;;;;;;16.95;11.25;;;10.90;99.90;;;;;;5021824;28;20491;-94
2022/05/02 01:18:54;;;;;;;13.88;9.77;;;10.90;99.90;;;;;;5006758;28;20497;-94
2022/05/02 01:21:22;;;;;;;19.00;9.57;;;10.90;99.90;;;;;;5007004;28;20030;-95
2022/05/02 01:23:56;;;;;;;14.98;9.10;;;10.90;99.90;;;;;;5007159;28;20029;-94
2022/05/02 01:26:34;;;;;;;;;;;;;;;;;;;;;
2022/05/02 01:29:06;;;;;;;16.42;10.23;;;10.80;99.90;;;;;;5024358;28;20098;-95
2022/05/02 01:31:32;;;;;;;14.90;9.90;;;10.80;99.90;;;;;;5006560;28;20037;-95
2022/05/02 01:34:03;;;;;;;15.23;9.80;;;10.80;99.90;;;;;;5024587;28;20030;-95
2022/05/02 01:36:32;;;;;;;15.82;10.07;;;10.80;99.90;;;;;;5006277;28;20120;-95
2022/05/02 01:39:03;;;;;;;15.90;10.43;;;10.80;99.90;;;;;;5006316;28;20026;-93
2022/05/02 01:41:31;;;;;;;14.43;9.82;;;10.80;99.90;;;;;;5006232;28;20025;-94
2022/05/02 01:44:00;;;;;;;13.82;9.35;;;10.70;99.90;;;;;;5007872;28;20495;-95
2022/05/02 01:46:26;;;;;;;17.48;10.65;;;10.70;99.90;;;;;;5009106;28;20101;-95
2022/05/02 01:48:55;;;;;;;17.88;11.10;;;10.70;99.90;;;;;;5006431;28;20057;-93
2022/05/02 01:51:24;;;;;;;13.32;8.13;;;10.70;99.90;;;;;;5006188;28;20113;-94
2022/05/02 01:53:51;;;;;;;18.15;10.93;;;10.70;99.90;;;;;;5006831;28;20049;-95
2022/05/02 01:56:17;;;;;;;18.77;11.40;;;10.70;99.90;;;;;;5005956;28;20040;-93
2022/05/02 01:58:43;;;;;;;15.55;9.68;;;10.70;99.90;;;;;;5006204;28;20065;-94
2022/05/02 02:01:09;;;;;;;14.15;9.43;;;10.60;99.90;;;;;;5006668;28;20060;-93
2022/05/02 02:03:35;;;;;;;14.93;9.98;;;10.60;99.90;;;;;;5007968;28;20030;-93
2022/05/02 02:06:04;;;;;;;12.90;9.27;;;10.60;99.90;;;;;;5006029;28;20030;-93
2022/05/02 02:08:32;;;;;;;15.35;9.75;;;10.60;99.90;;;;;;4993683;28;20133;-94
2022/05/02 02:11:07;;;;;;;15.65;9.55;;;10.60;99.90;;;;;;4986588;28;20030;-94
2022/05/02 02:13:34;;;;;;;16.17;10.52;;;10.60;99.90;;;;;;5004117;28;20034;-94
2022/05/02 02:16:06;;;;;;;15.02;9.57;;;10.60;99.90;;;;;;5002155;28;20034;-94
2022/05/02 02:18:32;;;;;;;16.38;10.20;;;10.60;99.90;;;;;;5009868;28;20044;-92
2022/05/02 02:20:58;;;;;;;14.68;9.50;;;10.60;99.90;;;;;;5009906;28;20034;-95
2022/05/02 02:23:24;;;;;;;13.75;9.50;;;10.60;99.90;;;;;;5009903;28;20058;-94
2022/05/02 02:25:50;;;;;;;13.02;9.32;;;10.60;99.90;;;;;;5008196;28;20034;-95
2022/05/02 02:28:16;;;;;;;13.85;9.52;;;10.50;99.90;;;;;;5007518;28;20029;-94
2022/05/02 02:30:45;;;;;;;13.57;9.73;;;10.50;99.90;;;;;;4999089;28;20113;-95
2022/05/02 02:33:11;;;;;;;13.75;8.45;;;10.50;99.90;;;;;;5000036;28;20089;-94
2022/05/02 02:35:38;;;;;;;14.23;9.88;;;10.50;99.90;;;;;;4998375;28;20030;-94
2022/05/02 02:38:03;;;;;;;12.95;8.98;;;10.50;99.90;;;;;;5002654;28;20034;-94
2022/05/02 02:40:30;;;;;;;13.10;9.48;;;10.60;99.90;;;;;;5006368;28;20041;-95
2022/05/02 02:42:56;;;;;;;14.52;9.88;;;10.60;99.90;;;;;;4996604;28;20026;-95
2022/05/02 02:45:22;;;;;;;14.07;9.40;;;10.60;99.90;;;;;;4999970;28;20042;-95
2022/05/02 02:47:48;;;;;;;14.18;9.07;;;10.60;99.90;;;;;;4995985;28;20093;-94
2022/05/02 02:50:14;;;;;;;14.93;9.85;;;10.60;99.90;;;;;;5011055;28;20021;-93
2022/05/02 02:52:41;;;;;;;14.02;9.52;;;10.70;99.90;;;;;;5011741;28;20067;-94
2022/05/02 02:55:07;;;;;;;13.48;9.25;;;10.70;99.90;;;;;;5012676;28;20034;-93
2022/05/02 02:57:36;;;;;;;13.45;9.60;;;10.70;99.90;;;;;;5007642;28;20022;-92
2022/05/02 03:00:06;;;;;;;14.63;9.48;;;10.70;99.90;;;;;;5009190;28;20033;-94
2022/05/02 03:02:33;;;;;;;17.33;10.35;;;10.70;99.90;;;;;;5005801;28;20491;-94
2022/05/02 03:07:43;;;;;;;15.80;9.50;;;10.60;99.90;;;;;;5020310;28;20082;-94
2022/05/02 03:10:09;;;;;;;14.13;10.13;;;10.60;99.90;;;;;;4997574;28;20022;-94
2022/05/02 03:12:35;;;;;;;14.90;9.98;;;10.60;99.90;;;;;;4998387;28;20064;-94
2022/05/02 03:15:01;;;;;;;15.38;9.57;;;10.60;99.90;;;;;;4999933;28;20555;-94
2022/05/02 03:17:27;;;;;;;15.82;9.93;;;10.50;99.90;;;;;;4995681;28;20042;-94
2022/05/02 03:19:52;;;;;;;14.10;9.90;;;10.60;99.90;;;;;;4991345;28;20060;-94
2022/05/02 03:22:18;;;;;;;12.93;9.32;;;10.50;99.90;;;;;;4999799;28;20018;-94
2022/05/02 03:24:45;;;;;;;12.52;9.20;;;10.50;99.90;;;;;;4991938;28;20084;-96
2022/05/02 03:27:11;;;;;;;15.07;9.35;;;10.50;99.90;;;;;;4993338;28;20035;-95
2022/05/02 03:29:37;;;;;;;15.07;9.10;;;10.50;99.90;;;;;;4996279;28;20053;-95
2022/05/02 03:32:03;;;;;;;12.40;9.20;;;10.50;99.90;;;;;;5014032;28;20227;-94
2022/05/02 03:34:32;;;;;;;13.20;8.60;;;10.50;99.90;;;;;;4997148;28;20030;-95
2022/05/02 03:36:58;;;;;;;15.77;9.38;;;10.50;99.90;;;;;;4996682;28;20022;-94
2022/05/02 03:39:24;;;;;;;13.52;9.55;;;10.50;99.90;;;;;;4994633;28;20868;-94
2022/05/02 03:41:50;;;;;;;15.13;9.35;;;10.40;99.90;;;;;;4976728;28;20494;-94
2022/05/02 03:44:16;;;;;;;14.80;10.10;;;10.40;99.90;;;;;;4992875;28;20038;-93
2022/05/02 03:46:47;;;;;;;14.27;9.68;;;10.40;99.90;;;;;;4999065;28;20034;-94
2022/05/02 03:49:13;;;;;;;14.77;9.90;;;10.40;99.90;;;;;;4996499;28;20018;-93
2022/05/02 03:51:38;;;;;;;16.67;10.23;;;10.40;99.90;;;;;;4999324;28;20021;-94
2022/05/02 03:54:04;;;;;;;14.45;9.80;;;10.40;99.90;;;;;;4996312;28;20526;-94
2022/05/02 03:56:30;;;;;;;14.20;10.10;;;10.40;99.90;;;;;;5003224;28;20082;-93
2022/05/02 03:58:56;;;;;;;15.50;9.35;;;10.40;99.90;;;;;;5001485;28;20490;-94
2022/05/02 04:01:23;;;;;;;12.93;9.32;;;10.40;99.90;;;;;;4991968;28;20033;-94
2022/05/02 04:03:50;;;;;;;15.23;9.98;;;10.40;99.90;;;;;;4994232;28;20019;-93
2022/05/02 04:06:15;;;;;;;12.27;9.05;;;10.40;99.90;;;;;;4993524;28;20157;-94
2022/05/02 04:08:41;;;;;;;13.68;9.52;;;10.40;99.90;;;;;;4996397;28;20053;-94
2022/05/02 04:11:07;;;;;;;15.00;9.50;;;10.40;99.90;;;;;;4997542;28;20035;-93
2022/05/02 04:13:33;;;;;;;15.07;10.18;;;10.40;99.90;;;;;;4996285;28;20064;-94
2022/05/02 04:15:59;;;;;;;15.10;10.07;;;10.40;99.90;;;;;;4994569;28;20441;-93
2022/05/02 04:18:24;;;;;;;14.85;9.60;;;10.40;99.90;;;;;;4997924;28;20045;-93
2022/05/02 04:20:50;;;;;;;15.60;10.45;;;10.40;99.90;;;;;;4997898;28;20443;-94
2022/05/02 04:23:16;;;;;;;15.45;9.80;;;10.40;99.90;;;;;;4989691;28;20547;-94
2022/05/02 04:25:41;;;;;;;15.52;10.68;;;10.40;99.90;;;;;;4998063;28;20045;-94
2022/05/02 04:28:08;;;;;;;15.27;9.02;;;10.40;99.90;;;;;;4994274;28;20069;-95
2022/05/02 04:30:35;;;;;;;14.82;9.23;;;10.50;99.90;;;;;;5000271;28;20106;-94
2022/05/02 04:33:05;;;;;;;14.20;9.75;;;10.50;99.90;;;;;;4994068;28;20580;-95
2022/05/02 04:35:30;;;;;;;14.75;10.15;;;10.40;99.90;;;;;;4995934;28;20097;-94
2022/05/02 04:37:58;;;;;;;12.55;8.38;;;10.40;99.90;;;;;;4993646;28;20057;-94
2022/05/02 04:40:30;;;;;;;14.18;9.20;;;10.40;99.90;;;;;;4992928;28;20028;-92
2022/05/02 04:42:56;;;;;;;14.25;9.38;;;10.40;99.90;;;;;;5000758;28;20030;-94
2022/05/02 04:45:22;;;;;;;15.27;10.23;;;10.40;99.90;;;;;;4991319;28;20080;-94
2022/05/02 04:47:47;;;;;;;14.85;10.57;;;10.40;99.90;;;;;;4989297;28;20042;-94
2022/05/02 04:50:13;;;;;;;14.85;9.40;;;10.40;99.90;;;;;;4998641;28;20026;-94
2022/05/02 04:52:39;;;;;;;18.25;10.15;;;10.40;99.90;;;;;;5014487;28;20063;-93
2022/05/02 04:55:05;;;;;;;13.85;9.18;;;10.40;99.90;;;;;;5006360;28;20128;-94
2022/05/02 04:57:33;;;;;;;12.93;9.38;;;10.40;99.90;;;;;;4999665;28;20031;-93
2022/05/02 04:59:59;;;;;;;17.13;10.57;;;10.40;99.90;;;;;;5000714;28;20038;-94
2022/05/02 05:02:25;;;;;;;16.33;10.93;;;10.40;99.90;;;;;;4998387;28;20110;-94
2022/05/02 05:04:51;;;;;;;16.40;11.35;;;10.40;99.90;;;;;;5005629;28;20057;-95
2022/05/02 05:07:17;;;;;;;16.75;10.55;;;10.30;99.90;;;;;;5007300;28;20061;-95
2022/05/02 05:09:42;;;;;;;16.55;10.43;;;10.30;99.90;;;;;;4999507;28;20022;-94
2022/05/02 05:12:47;;;;;;;15.65;10.27;;;10.30;99.90;;;;;;4998251;28;20045;-95
2022/05/02 05:18:51;;;;;;;15.88;10.18;;;10.30;99.90;;;;;;5025197;28;20053;-93
2022/05/02 05:21:44;;;;;;;18.77;11.10;;;10.30;99.90;;;;;;4998686;28;20081;-93
2022/05/02 05:24:25;;;;;;;17.30;10.88;;;10.20;99.90;;;;;;4995002;28;20026;-94
2022/05/02 05:27:09;;;;;;;;;;;10.30;99.90;;;;;;5003694;28;20117;-94
2022/05/02 05:29:49;;;;;;;17.15;10.65;;;10.30;99.90;;;;;;4999515;28;19906;-94
2022/05/02 05:32:30;;;;;;;18.00;11.00;;;10.30;99.90;;;;;;5003594;28;20022;-94
2022/05/02 05:35:07;;;;;;;17.92;12.00;;;10.30;99.90;;;;;;5000423;28;20038;-94
2022/05/02 05:38:04;;;;;;;17.92;10.68;;;10.20;99.90;;;;;;4999148;28;20026;-93
2022/05/02 05:40:38;;;;;;;20.00;11.65;;;10.30;99.90;;;;;;5000076;28;20485;-93
2022/05/02 05:43:13;;;;;;;19.08;12.35;;;10.20;99.90;;;;;;4994365;28;20054;-93
2022/05/02 05:45:48;;;;;;;17.40;11.60;;;10.30;99.90;;;;;;5004235;28;20104;-94
2022/05/02 05:48:21;;;;;;;16.33;10.85;;;10.30;99.90;;;;;;4996322;28;20057;-94
2022/05/02 05:51:03;;;;;;;20.20;12.20;;;10.30;99.90;;;;;;4995452;28;20043;-95
2022/05/02 05:53:35;;;;;;;18.77;12.00;;;10.30;99.90;;;;;;4979486;28;20442;-94
2022/05/02 05:56:07;;;;;;;19.52;11.93;;;10.30;99.90;;;;;;5001378;28;20030;-94
2022/05/02 05:59:04;;;;;;;17.40;11.50;;;10.40;99.90;;;;;;4997194;28;20018;-94
2022/05/02 06:01:40;;;;;;;18.35;11.88;;;10.40;99.90;;;;;;4993373;28;20034;-94
2022/05/02 06:04:07;;;;;;;16.73;11.32;;;10.40;99.90;;;;;;4995699;28;20108;-94
2022/05/02 06:06:37;;;;;;;17.73;10.90;;;10.40;99.90;;;;;;4999704;28;20036;-94
2022/05/02 06:09:05;;;;;;;20.27;11.85;;;10.40;99.90;;;;;;4996243;28;20050;-92
2022/05/02 06:11:33;;;;;;;17.77;11.95;;;10.40;99.90;;;;;;4995036;28;20476;-93
2022/05/02 06:14:01;;;;;;;19.90;12.25;;;10.50;99.90;;;;;;4993887;28;20049;-94
2022/05/02 06:19:27;;;;;;;22.42;13.05;;;10.50;99.90;;;;;;5012380;28;20029;-93
2022/05/02 06:21:55;;;;;;;22.20;12.80;;;10.50;99.90;;;;;;5022534;28;20117;-94
2022/05/02 06:24:26;;;;;;;21.88;13.55;;;10.50;99.90;;;;;;5006542;28;20491;-94
2022/05/02 06:26:55;;;;;;;19.33;12.48;;;10.50;99.90;;;;;;5001220;28;20042;-94
2022/05/02 06:29:23;;;;;;;23.87;14.30;;;10.60;99.90;;;;;;5012301;28;20468;-94
2022/05/02 06:31:52;;;;;;;20.05;12.70;;;10.60;99.90;;;;;;5007833;28;20042;-92
2022/05/02 06:34:41;;;;;;;21.80;13.68;;;10.70;99.90;;;;;;5016136;28;20029;-95
2022/05/02 06:37:45;;;;;;;21.77;13.18;;;10.70;99.90;;;;;;5006742;28;20034;-94
2022/05/02 06:40:33;;;;;;;21.35;12.90;;;10.70;99.90;;;;;;4996781;28;20053;-94
2022/05/02 06:43:15;;;;;;;19.75;11.85;;;10.80;99.90;;;;;;5007307;28;20030;-93
2022/05/02 06:46:19;;;;;;;23.77;13.80;;;10.80;99.90;;;;;;5005410;28;20026;-93
2022/05/02 06:49:08;;;;;;;25.10;14.27;;;10.90;99.90;;;;;;5004533;28;20042;-92
2022/05/02 06:51:39;;;;;;;21.80;14.15;;;10.90;99.90;;;;;;5002390;28;20101;-94
2022/05/02 06:54:29;;;;;;;25.25;14.75;;;10.90;99.90;;;;;;5005685;28;20050;-95
2022/05/02 06:57:16;;;;;;;23.13;14.23;;;10.90;99.90;;;;;;5003413;28;20037;-94
2022/05/02 07:00:15;;;;;;;22.45;14.48;;;11.00;99.90;;;;;;5002914;28;20018;-95
2022/05/02 07:03:13;;;;;;;22.95;14.50;;;11.00;99.90;;;;;;4985775;28;20070;-93
2022/05/02 07:06:08;;;;;;;22.80;13.90;;;11.10;99.90;;;;;;4998969;28;20030;-94
2022/05/02 07:09:00;;;;;;;27.83;15.30;;;11.10;99.90;;;;;;5007398;28;20030;-92
2022/05/02 07:11:42;;;;;;;23.80;14.27;;;11.10;99.90;;;;;;5004802;28;20053;-92
2022/05/02 07:14:21;;;;;;;28.25;16.02;;;11.20;99.90;;;;;;5001041;28;20022;-94
2022/05/02 07:16:56;;;;;;;25.42;15.57;;;11.30;99.90;;;;;;5003894;28;20026;-92
2022/05/02 07:19:21;;;;;;;23.48;15.10;;;11.30;99.90;;;;;;5007132;28;20021;-94
2022/05/02 07:22:07;;;;;;;24.83;15.80;;;11.40;99.90;;;;;;5012664;28;20109;-93
2022/05/02 07:25:13;;;;;;;24.63;15.13;;;11.50;99.90;;;;;;5013002;28;20037;-93
2022/05/02 07:28:04;;;;;;;23.30;14.10;;;11.60;99.90;;;;;;5017303;28;20030;-94
2022/05/02 07:30:30;;;;;;;26.48;15.40;;;11.60;99.90;;;;;;5019384;28;20030;-92
2022/05/02 07:32:56;;;;;;;27.92;16.45;;;11.70;99.90;;;;;;5014473;28;20022;-94
2022/05/02 07:35:27;;;;;;;25.80;15.27;;;11.80;99.90;;;;;;4998468;28;20068;-93
2022/05/02 07:37:53;;;;;;;26.15;15.77;;;11.80;99.90;;;;;;5012808;28;20121;-93
2022/05/02 07:40:21;;;;;;;29.40;16.15;;;11.90;99.90;;;;;;5004297;28;20038;-95
2022/05/02 07:42:47;;;;;;;26.50;15.27;;;11.90;99.90;;;;;;4996940;28;20025;-94
2022/05/02 07:45:17;;;;;;;25.90;16.10;;;11.90;99.90;;;;;;5003658;28;20081;-95
2022/05/02 07:47:45;;;;;;;25.65;15.55;;;12.00;99.90;;;;;;5000659;28;20046;-95
2022/05/02 07:50:12;;;;;;;27.75;16.40;;;12.10;99.90;;;;;;5003518;28;20022;-94
2022/05/02 07:52:41;;;;;;;29.23;16.65;;;12.10;99.90;;;;;;4998286;28;20034;-95
2022/05/02 07:55:11;;;;;;;30.92;16.67;;;12.10;99.90;;;;;;4994597;28;20045;-94
2022/05/02 07:57:40;;;;;;;25.43;15.80;;;12.20;99.90;;;;;;4998032;28;20033;-94
2022/05/02 08:00:10;;;;;;;23.00;13.88;;;12.20;99.90;;;;;;5005788;28;20269;-96
2022/05/02 08:02:36;;;;;;;25.45;15.50;;;12.30;99.90;;;;;;4994676;28;20030;-95
2022/05/02 08:05:05;;;;;;;24.42;15.77;;;12.30;99.90;;;;;;5001179;28;20026;-95
2022/05/02 08:07:43;;;;;;;30.83;17.77;;;12.40;99.90;;;;;;5000899;28;20081;-94
2022/05/02 08:10:30;;;;;;;25.90;15.50;;;12.40;99.90;;;;;;5001818;28;20052;-94
2022/05/02 08:13:02;;;;;;;29.60;17.40;;;12.40;99.90;;;;;;4995718;28;20167;-93
2022/05/02 08:15:58;;;;;;;30.85;17.27;;;12.50;99.90;;;;;;5005851;28;20037;-94
2022/05/02 08:18:55;;;;;;;29.67;17.45;;;12.60;99.90;;;;;;4991225;28;20034;-96
2022/05/02 08:21:44;;;;;;;30.67;17.35;;;12.70;99.90;;;;;;4989321;28;20034;-95
2022/05/02 08:27:40;;;;;;;33.10;18.13;;;12.90;99.90;;;;;;5011029;28;20068;-93
2022/05/02 08:30:15;;;;;;;32.22;18.35;;;12.90;99.90;;;;;;4992701;28;20025;-95
2022/05/02 08:32:51;;;;;;;33.67;19.20;;;13.00;99.90;;;;;;5010603;28;20030;-94
2022/05/02 08:35:37;;;;;;;34.13;19.30;;;13.00;99.90;;;;;;4996992;28;20037;-93
2022/05/02 08:38:27;;;;;;;31.67;18.85;;;13.10;99.90;;;;;;4995234;28;20077;-93
2022/05/02 08:41:08;;;;;;;36.15;19.08;;;13.20;99.90;;;;;;4990706;28;20053;-92
2022/05/02 08:43:52;;;;;;;30.42;17.48;;;13.30;99.90;;;;;;4996972;28;20117;-95
2022/05/02 08:46:37;;;;;;;32.63;17.75;;;13.30;99.90;;;;;;4994648;28;20117;-94
2022/05/02 08:49:35;;;;;;;31.52;18.42;;;13.40;99.90;;;;;;5008954;28;20097;-95
2022/05/02 08:52:12;;;;;;;29.60;18.40;;;13.40;99.90;;;;;;4989171;28;20018;-94
2022/05/02 08:54:58;;;;;;;32.30;18.70;;;13.50;99.90;;;;;;4983953;28;20037;-95
2022/05/02 08:57:46;;;;;;;33.95;19.58;;;13.60;99.90;;;;;;5007539;28;20069;-95
2022/05/02 09:00:46;;;;;;;34.25;18.70;;;13.70;99.90;;;;;;4995512;28;20049;-95
2022/05/02 09:03:23;;;;;;;38.63;20.40;;;13.70;99.90;;;;;;4987381;28;20113;-94
2022/05/02 09:05:49;;;;;;;33.38;18.60;;;13.80;99.90;;;;;;4987416;28;20034;-94
2022/05/02 09:08:48;;;;;;;33.75;19.30;;;13.80;99.90;;;;;;4989455;28;20063;-92
2022/05/02 09:11:32;;;;;;;35.20;19.70;;;13.90;99.90;;;;;;5010531;28;20022;-92
2022/05/02 09:14:35;;;;;;;35.08;19.80;;;13.90;99.90;;;;;;4990504;28;20073;-92
2022/05/02 09:17:12;;;;;;;33.08;18.85;;;14.00;99.90;;;;;;4990782;28;20034;-92
2022/05/02 09:20:22;;;;;;;31.00;18.25;;;14.00;99.90;;;;;;4994624;28;20038;-92
2022/05/02 09:23:15;;;;;;;32.90;18.38;;;14.10;99.90;;;;;;4968929;28;20533;-93
2022/05/02 09:26:14;;;;;;;31.02;17.95;;;14.10;99.90;;;;;;4990634;28;20514;-93
2022/05/02 09:28:55;;;;;;;29.98;18.08;;;14.10;99.90;;;;;;4985793;28;20026;-93
2022/05/02 09:31:35;;;;;;;;;;;14.10;99.90;;;;;;5004387;28;20416;-94
2022/05/02 09:34:18;;;;;;;29.33;16.53;;;14.10;99.90;;;;;;4987625;28;19996;-93
2022/05/02 09:37:05;;;;;;;33.03;17.45;;;14.10;99.90;;;;;;4985670;28;20037;-94
2022/05/02 09:39:46;;;;;;;29.33;17.05;;;14.10;99.90;;;;;;4991936;28;20041;-95
2022/05/02 09:42:28;;;;;;;29.10;15.73;;;14.10;99.90;;;;;;4986124;28;20464;-93
2022/05/02 09:51:43;;;;;;;26.15;16.42;;;14.10;99.90;;;;;;4949826;28;20031;-93
2022/05/02 09:57:22;;;;;;;28.08;16.27;;;14.00;99.90;;;;;;4952580;29;20096;-93
2022/05/02 10:01:06;;;;;;;30.52;17.33;;;14.00;99.90;;;;;;4935076;29;20092;-91
2022/05/02 10:02:47;;;;;;;30.25;17.67;;;14.00;99.90;;;;;;4953464;28;20074;-91
2022/05/02 10:05:48;;;;;;;33.05;17.90;;;13.90;99.90;;;;;;4951375;29;20062;-90
2022/05/02 10:08:46;;;;;;;26.42;16.00;;;13.90;99.90;;;;;;4934318;29;20247;-91
2022/05/02 10:11:47;;;;;;;28.80;15.77;;;13.90;99.90;;;;;;4945387;29;20118;-91
2022/05/02 10:14:56;;;;;;;28.98;15.82;;;13.90;99.90;;;;;;4951036;28;20035;-91
2022/05/02 10:17:51;;;;;;;30.25;16.73;;;13.90;99.90;;;;;;4939029;29;20050;-93
2022/05/02 10:20:19;;;;;;;30.77;14.40;;;14.00;99.90;;;;;;4948837;28;20031;-91
2022/05/02 10:23:15;;;;;;;25.40;15.07;;;14.00;99.90;;;;;;4979237;28;20030;-92
2022/05/02 10:25:55;;;;;;;28.60;14.38;;;14.10;99.90;;;;;;4999884;28;20034;-92
2022/05/02 10:28:30;;;;;;;24.52;14.73;;;14.20;99.90;;;;;;4990286;28;20027;-92
2022/05/02 10:31:25;;;;;;;23.33;13.68;;;14.30;99.90;;;;;;5001088;28;20066;-92
2022/05/02 10:33:53;;;;;;;23.40;13.63;;;14.30;99.90;;;;;;4980873;28;20133;-93
2022/05/02 10:36:23;;;;;;;25.77;14.90;;;14.40;99.90;;;;;;4981614;28;20100;-92
2022/05/02 10:38:55;;;;;;;21.90;12.73;;;14.50;99.90;;;;;;4980085;28;20030;-92
2022/05/02 10:41:41;;;;;;;22.23;13.07;;;14.60;99.90;;;;;;4981033;28;20023;-90
2022/05/02 10:44:09;;;;;;;20.90;12.63;;;14.60;99.90;;;;;;4979790;28;20022;-92
2022/05/02 10:46:38;;;;;;;25.40;14.70;;;14.60;99.90;;;;;;4996952;28;20038;-92
2022/05/02 10:49:21;;;;;;;24.05;13.25;;;14.60;99.90;;;;;;4995532;28;20070;-92
2022/05/02 10:52:07;;;;;;;25.00;14.32;;;14.60;99.90;;;;;;4980221;28;20034;-93
2022/05/02 10:54:55;;;;;;;19.00;11.77;;;14.70;99.90;;;;;;4980489;28;20041;-92
2022/05/02 10:57:45;;;;;;;21.80;12.15;;;14.70;99.90;;;;;;4980335;28;20039;-91
2022/05/02 11:00:12;;;;;;;19.20;10.57;;;14.80;99.90;;;;;;4980166;28;20026;-91
2022/05/02 11:03:06;;;;;;;18.73;10.68;;;14.80;99.90;;;;;;4998211;28;20026;-93
2022/05/02 11:05:42;;;;;;;20.52;12.55;;;14.80;99.90;;;;;;4999926;28;20034;-92
2022/05/02 11:08:09;;;;;;;24.33;12.25;;;14.80;99.90;;;;;;4999950;28;20125;-93
2022/05/02 11:10:42;;;;;;;19.20;12.82;;;14.80;99.90;;;;;;5000039;28;20033;-90
2022/05/02 11:13:25;;;;;;;20.85;12.45;;;14.80;99.90;;;;;;4999622;28;20022;-93
2022/05/02 11:15:51;;;;;;;19.73;12.40;;;14.80;99.90;;;;;;5000320;28;20034;-92
2022/05/02 11:21:40;;;;;;;17.77;11.38;;;14.70;99.90;;;;;;5020581;28;20037;-92
2022/05/02 11:24:37;;;;;;;19.67;12.15;;;14.70;99.90;;;;;;5003039;28;20030;-93
2022/05/02 11:27:24;;;;;;;21.35;12.98;;;14.70;99.90;;;;;;5006383;28;20030;-91
2022/05/02 11:30:03;;;;;;;17.13;10.23;;;14.70;99.90;;;;;;5005996;28;20048;-92
2022/05/02 11:32:50;;;;;;;19.33;12.35;;;14.60;99.90;;;;;;5004411;28;20028;-92
2022/05/02 11:35:39;;;;;;;19.60;11.18;;;14.60;99.90;;;;;;5000751;28;20046;-92
2022/05/02 11:38:26;;;;;;;19.40;12.60;;;14.60;99.90;;;;;;5000512;28;20030;-92
2022/05/02 11:41:15;;;;;;;17.92;11.60;;;14.60;99.90;;;;;;4999865;28;20368;-92
2022/05/02 11:43:51;;;;;;;16.98;11.43;;;14.60;99.90;;;;;;5000687;28;20112;-91
2022/05/02 11:46:25;;;;;;;18.08;10.75;;;14.60;99.90;;;;;;5002220;28;20018;-92
2022/05/02 11:49:19;;;;;;;19.80;11.95;;;14.60;99.90;;;;;;5003529;28;20069;-91
2022/05/02 11:51:47;;;;;;;17.50;11.18;;;14.50;99.90;;;;;;5009681;28;20054;-91
2022/05/02 11:54:33;;;;;;;19.27;11.80;;;14.50;99.90;;;;;;5014427;28;20046;-90
2022/05/02 11:57:22;;;;;;;18.13;11.38;;;14.50;99.90;;;;;;5014868;28;20068;-90
2022/05/02 12:00:07;;;;;;;15.35;10.52;;;14.50;99.90;;;;;;5018747;28;20025;-91
2022/05/02 12:02:43;;;;;;;16.15;10.93;;;14.60;99.90;;;;;;5018372;28;20022;-91
2022/05/02 12:05:27;;;;;;;20.90;12.15;;;14.60;99.90;;;;;;5003903;28;20037;-94
2022/05/02 12:08:04;;;;;;;18.40;11.80;;;14.60;99.90;;;;;;5005911;28;20084;-93
2022/05/02 12:10:47;;;;;;;16.70;10.50;;;14.60;99.90;;;;;;5003478;28;20722;-94
2022/05/02 12:13:15;;;;;;;20.27;12.30;;;14.50;99.90;;;;;;5000935;28;20034;-92
2022/05/02 12:16:01;;;;;;;19.45;12.13;;;14.60;99.90;;;;;;5000414;28;20038;-91
2022/05/02 12:18:42;;;;;;;18.17;11.23;;;14.60;99.90;;;;;;5011199;28;20048;-91
2022/05/02 12:21:11;;;;;;;20.02;11.88;;;14.60;99.90;;;;;;4999805;28;20026;-92
2022/05/02 12:23:41;;;;;;;17.23;11.65;;;14.60;99.90;;;;;;4998606;28;20124;-92
2022/05/02 12:26:28;;;;;;;19.73;11.88;;;14.60;99.90;;;;;;4998978;28;20434;-93
2022/05/02 12:29:03;;;;;;;17.42;11.57;;;14.50;99.90;;;;;;4998747;28;20030;-93
2022/05/02 12:31:32;;;;;;;17.20;11.07;;;14.60;99.90;;;;;;4998790;28;20034;-92
2022/05/02 12:34:05;;;;;;;17.63;11.18;;;14.60;99.90;;;;;;4998641;28;20115;-91
2022/05/02 12:36:47;;;;;;;17.40;10.75;;;14.60;99.90;;;;;;4998819;28;20038;-92
2022/05/02 12:39:23;;;;;;;19.45;11.25;;;14.60;99.90;;;;;;4998481;28;20037;-92
2022/05/02 12:41:54;;;;;;;20.05;11.98;;;14.70;99.90;;;;;;4998922;28;20038;-92
2022/05/02 12:44:25;;;;;;;16.45;10.63;;;14.70;99.90;;;;;;4998166;28;20026;-91
2022/05/02 12:46:53;;;;;;;17.95;10.93;;;14.70;99.90;;;;;;4998229;28;20034;-91
2022/05/02 12:49:40;;;;;;;22.10;11.07;;;14.70;99.90;;;;;;4998793;28;20119;-92
2022/05/02 12:52:07;;;;;;;18.70;11.25;;;14.70;99.90;;;;;;5000477;28;20018;-93
2022/05/02 12:54:33;;;;;;;17.63;12.02;;;14.80;99.90;;;;;;4998115;28;20034;-92
2022/05/02 13:02:43;;;;;;;18.77;10.80;;;14.80;99.90;;;;;;5015396;28;20045;-92
2022/05/02 13:05:17;;;;;;;15.70;10.20;;;14.80;99.90;;;;;;4998863;28;20041;-93
2022/05/02 13:07:49;;;;;;;17.63;11.55;;;14.80;99.90;;;;;;4999974;28;20026;-92
2022/05/02 13:10:19;;;;;;;17.80;11.25;;;14.80;99.90;;;;;;5009067;28;20026;-90
2022/05/02 13:13:04;;;;;;;16.95;10.07;;;14.90;99.90;;;;;;5005049;28;20069;-92
2022/05/02 13:15:39;;;;;;;17.77;10.77;;;14.90;99.90;;;;;;5001693;28;20264;-92
2022/05/02 13:18:09;;;;;;;19.05;10.60;;;14.90;99.90;;;;;;5001199;28;20018;-92
2022/05/02 13:20:36;;;;;;;17.33;11.55;;;15.00;99.90;;;;;;5000956;28;20128;-93
2022/05/02 13:23:10;;;;;;;14.23;8.20;;;15.00;99.90;;;;;;5001297;28;20026;-92
2022/05/02 13:25:57;;;;;;;17.10;10.85;;;15.00;99.90;;;;;;5001458;28;20440;-93
2022/05/02 13:28:32;;;;;;;19.27;11.32;;;15.00;99.90;;;;;;5001312;28;20120;-92
2022/05/02 13:31:35;;;;;;;17.33;10.88;;;15.10;99.90;;;;;;5001337;28;20033;-92
2022/05/02 13:34:04;;;;;;;16.98;11.30;;;15.10;99.90;;;;;;4952681;28;20403;-91
2022/05/02 13:36:39;;;;;;;19.75;12.07;;;15.10;99.90;;;;;;5000376;28;20045;-92
2022/05/02 13:39:13;;;;;;;17.58;10.38;;;15.10;99.90;;;;;;5002396;28;20390;-92
2022/05/02 13:41:41;;;;;;;19.02;11.43;;;15.10;99.90;;;;;;5001507;28;20088;-93
2022/05/02 13:44:40;;;;;;;21.73;11.43;;;15.10;99.90;;;;;;5000672;28;20018;-93